sensor_id;sensor_type;location;lat;lon;timestamp;P1;durP1;ratioP1;P2;durP2;ratioP2
10110;SDS011;5095;49.796;9.934;2022-10-14T00:01:03;7.00;;;4.90;;
10110;SDS011;5095;49.796;9.934;2022-10-14T00:03:29;7.03;;;4.83;;
10110;SDS011;5095;49.796;9.934;2022-10-14T00:05:55;7.37;;;4.90;;
10110;SDS011;5095;49.796;9.934;2022-10-14T00:08:21;6.53;;;4.83;;
10110;SDS011;5095;49.796;9.934;2022-10-14T00:10:48;7.90;;;4.93;;
10110;SDS011;5095;49.796;9.934;2022-10-14T00:13:14;8.07;;;5.30;;
10110;SDS011;5095;49.796;9.934;2022-10-14T00:15:40;6.30;;;5.00;;
10110;SDS011;5095;49.796;9.934;2022-10-14T00:18:06;8.33;;;5.53;;
10110;SDS011;5095;49.796;9.934;2022-10-14T00:20:33;7.03;;;5.20;;
10110;SDS011;5095;49.796;9.934;2022-10-14T00:22:59;9.23;;;5.50;;
10110;SDS011;5095;49.796;9.934;2022-10-14T00:25:25;8.40;;;6.00;;
10110;SDS011;5095;49.796;9.934;2022-10-14T00:27:52;9.70;;;5.30;;
10110;SDS011;5095;49.796;9.934;2022-10-14T00:30:18;7.97;;;4.70;;
10110;SDS011;5095;49.796;9.934;2022-10-14T00:32:44;10.67;;;5.73;;
10110;SDS011;5095;49.796;9.934;2022-10-14T00:35:10;6.30;;;4.60;;
10110;SDS011;5095;49.796;9.934;2022-10-14T00:37:36;7.13;;;4.80;;
10110;SDS011;5095;49.796;9.934;2022-10-14T00:40:03;9.17;;;5.10;;
10110;SDS011;5095;49.796;9.934;2022-10-14T00:42:32;11.90;;;6.40;;
10110;SDS011;5095;49.796;9.934;2022-10-14T00:45:03;10.73;;;6.43;;
10110;SDS011;5095;49.796;9.934;2022-10-14T00:47:30;6.17;;;4.50;;
10110;SDS011;5095;49.796;9.934;2022-10-14T00:49:57;12.83;;;7.30;;
10110;SDS011;5095;49.796;9.934;2022-10-14T00:52:24;12.50;;;6.83;;
10110;SDS011;5095;49.796;9.934;2022-10-14T00:54:52;11.37;;;6.90;;
10110;SDS011;5095;49.796;9.934;2022-10-14T00:57:19;8.27;;;5.87;;
10110;SDS011;5095;49.796;9.934;2022-10-14T00:59:46;12.53;;;6.80;;
10110;SDS011;5095;49.796;9.934;2022-10-14T01:02:12;10.97;;;7.13;;
10110;SDS011;5095;49.796;9.934;2022-10-14T01:04:38;11.27;;;7.73;;
10110;SDS011;5095;49.796;9.934;2022-10-14T01:07:17;9.90;;;6.57;;
10110;SDS011;5095;49.796;9.934;2022-10-14T01:30:28;10.30;;;6.60;;
10110;SDS011;5095;49.796;9.934;2022-10-14T01:37:52;8.70;;;6.87;;
10110;SDS011;5095;49.796;9.934;2022-10-14T01:41:01;10.40;;;6.03;;
10110;SDS011;5095;49.796;9.934;2022-10-14T01:43:08;9.63;;;6.70;;
10110;SDS011;5095;49.796;9.934;2022-10-14T01:45:37;8.33;;;6.10;;
10110;SDS011;5095;49.796;9.934;2022-10-14T01:48:04;8.23;;;6.17;;
10110;SDS011;5095;49.796;9.934;2022-10-14T01:50:31;11.37;;;6.50;;
10110;SDS011;5095;49.796;9.934;2022-10-14T01:53:00;11.50;;;7.10;;
10110;SDS011;5095;49.796;9.934;2022-10-14T01:55:27;9.10;;;6.13;;
10110;SDS011;5095;49.796;9.934;2022-10-14T01:57:55;9.87;;;5.67;;
10110;SDS011;5095;49.796;9.934;2022-10-14T02:00:22;7.83;;;5.40;;
10110;SDS011;5095;49.796;9.934;2022-10-14T02:02:48;6.07;;;4.50;;
10110;SDS011;5095;49.796;9.934;2022-10-14T02:05:16;8.47;;;6.10;;
10110;SDS011;5095;49.796;9.934;2022-10-14T02:07:44;9.50;;;5.47;;
10110;SDS011;5095;49.796;9.934;2022-10-14T02:13:11;7.73;;;5.30;;
10110;SDS011;5095;49.796;9.934;2022-10-14T02:15:45;9.73;;;6.00;;
10110;SDS011;5095;49.796;9.934;2022-10-14T02:18:19;9.13;;;6.30;;
10110;SDS011;5095;49.796;9.934;2022-10-14T02:20:50;12.63;;;5.93;;
10110;SDS011;5095;49.796;9.934;2022-10-14T02:23:19;7.60;;;5.60;;
10110;SDS011;5095;49.796;9.934;2022-10-14T02:25:46;8.97;;;6.30;;
10110;SDS011;5095;49.796;9.934;2022-10-14T02:28:17;9.83;;;6.00;;
10110;SDS011;5095;49.796;9.934;2022-10-14T02:30:45;8.57;;;5.70;;
10110;SDS011;5095;49.796;9.934;2022-10-14T02:33:14;8.83;;;6.10;;
10110;SDS011;5095;49.796;9.934;2022-10-14T02:35:44;8.50;;;5.37;;
10110;SDS011;5095;49.796;9.934;2022-10-14T02:38:11;9.97;;;6.33;;
10110;SDS011;5095;49.796;9.934;2022-10-14T02:40:38;9.00;;;6.20;;
10110;SDS011;5095;49.796;9.934;2022-10-14T02:43:05;8.83;;;6.20;;
10110;SDS011;5095;49.796;9.934;2022-10-14T02:45:34;8.73;;;6.30;;
10110;SDS011;5095;49.796;9.934;2022-10-14T02:48:00;8.40;;;6.27;;
10110;SDS011;5095;49.796;9.934;2022-10-14T02:50:26;10.50;;;6.20;;
10110;SDS011;5095;49.796;9.934;2022-10-14T02:52:52;10.10;;;6.27;;
10110;SDS011;5095;49.796;9.934;2022-10-14T02:55:18;9.57;;;5.90;;
10110;SDS011;5095;49.796;9.934;2022-10-14T02:57:44;7.23;;;5.87;;
10110;SDS011;5095;49.796;9.934;2022-10-14T03:00:10;7.97;;;5.27;;
10110;SDS011;5095;49.796;9.934;2022-10-14T03:02:36;7.90;;;5.80;;
10110;SDS011;5095;49.796;9.934;2022-10-14T03:05:02;8.57;;;5.47;;
10110;SDS011;5095;49.796;9.934;2022-10-14T03:07:28;10.17;;;6.40;;
10110;SDS011;5095;49.796;9.934;2022-10-14T03:09:54;8.60;;;6.27;;
10110;SDS011;5095;49.796;9.934;2022-10-14T03:12:21;8.67;;;5.93;;
10110;SDS011;5095;49.796;9.934;2022-10-14T03:14:47;8.50;;;5.90;;
10110;SDS011;5095;49.796;9.934;2022-10-14T03:17:13;7.93;;;5.73;;
10110;SDS011;5095;49.796;9.934;2022-10-14T03:19:39;9.97;;;6.00;;
10110;SDS011;5095;49.796;9.934;2022-10-14T03:22:05;9.37;;;6.20;;
10110;SDS011;5095;49.796;9.934;2022-10-14T03:24:31;8.63;;;6.17;;
10110;SDS011;5095;49.796;9.934;2022-10-14T03:26:57;10.43;;;6.27;;
10110;SDS011;5095;49.796;9.934;2022-10-14T03:29:23;8.37;;;6.73;;
10110;SDS011;5095;49.796;9.934;2022-10-14T03:31:49;7.43;;;5.90;;
10110;SDS011;5095;49.796;9.934;2022-10-14T03:34:15;7.87;;;6.70;;
10110;SDS011;5095;49.796;9.934;2022-10-14T03:36:41;11.97;;;6.57;;
10110;SDS011;5095;49.796;9.934;2022-10-14T03:39:08;13.37;;;9.80;;
10110;SDS011;5095;49.796;9.934;2022-10-14T03:41:34;9.03;;;6.37;;
10110;SDS011;5095;49.796;9.934;2022-10-14T03:44:00;10.33;;;7.00;;
10110;SDS011;5095;49.796;9.934;2022-10-14T03:46:26;9.17;;;6.50;;
10110;SDS011;5095;49.796;9.934;2022-10-14T03:48:52;12.07;;;7.23;;
10110;SDS011;5095;49.796;9.934;2022-10-14T03:51:18;7.33;;;5.80;;
10110;SDS011;5095;49.796;9.934;2022-10-14T03:53:44;9.23;;;6.00;;
10110;SDS011;5095;49.796;9.934;2022-10-14T03:56:11;12.70;;;7.60;;
10110;SDS011;5095;49.796;9.934;2022-10-14T03:58:37;11.23;;;7.63;;
10110;SDS011;5095;49.796;9.934;2022-10-14T04:01:03;9.73;;;6.80;;
10110;SDS011;5095;49.796;9.934;2022-10-14T04:03:29;11.47;;;7.47;;
10110;SDS011;5095;49.796;9.934;2022-10-14T04:05:55;10.97;;;7.20;;
10110;SDS011;5095;49.796;9.934;2022-10-14T04:08:21;9.17;;;7.27;;
10110;SDS011;5095;49.796;9.934;2022-10-14T04:10:53;9.80;;;6.70;;
10110;SDS011;5095;49.796;9.934;2022-10-14T04:13:19;10.97;;;7.10;;
10110;SDS011;5095;49.796;9.934;2022-10-14T04:15:45;11.57;;;7.17;;
10110;SDS011;5095;49.796;9.934;2022-10-14T04:18:11;13.40;;;7.20;;
10110;SDS011;5095;49.796;9.934;2022-10-14T04:20:37;10.13;;;7.03;;
10110;SDS011;5095;49.796;9.934;2022-10-14T04:23:03;12.13;;;7.27;;
10110;SDS011;5095;49.796;9.934;2022-10-14T04:25:29;12.43;;;7.93;;
10110;SDS011;5095;49.796;9.934;2022-10-14T04:27:55;12.90;;;7.40;;
10110;SDS011;5095;49.796;9.934;2022-10-14T04:30:21;11.63;;;7.33;;
10110;SDS011;5095;49.796;9.934;2022-10-14T04:32:47;11.37;;;7.63;;
10110;SDS011;5095;49.796;9.934;2022-10-14T04:35:13;11.60;;;7.63;;
10110;SDS011;5095;49.796;9.934;2022-10-14T04:37:39;9.10;;;7.37;;
10110;SDS011;5095;49.796;9.934;2022-10-14T04:40:05;10.97;;;7.77;;
10110;SDS011;5095;49.796;9.934;2022-10-14T04:42:31;15.70;;;7.27;;
10110;SDS011;5095;49.796;9.934;2022-10-14T04:44:57;11.87;;;7.90;;
10110;SDS011;5095;49.796;9.934;2022-10-14T04:47:23;13.63;;;7.60;;
10110;SDS011;5095;49.796;9.934;2022-10-14T04:49:49;10.37;;;7.33;;
10110;SDS011;5095;49.796;9.934;2022-10-14T04:52:15;10.90;;;7.40;;
10110;SDS011;5095;49.796;9.934;2022-10-14T04:54:41;13.57;;;7.50;;
10110;SDS011;5095;49.796;9.934;2022-10-14T04:57:07;9.17;;;6.43;;
10110;SDS011;5095;49.796;9.934;2022-10-14T04:59:34;8.47;;;7.40;;
10110;SDS011;5095;49.796;9.934;2022-10-14T05:02:00;13.10;;;7.97;;
10110;SDS011;5095;49.796;9.934;2022-10-14T05:04:26;9.20;;;7.17;;
10110;SDS011;5095;49.796;9.934;2022-10-14T05:06:52;11.67;;;7.43;;
10110;SDS011;5095;49.796;9.934;2022-10-14T05:09:18;9.80;;;7.87;;
10110;SDS011;5095;49.796;9.934;2022-10-14T05:11:44;12.07;;;6.70;;
10110;SDS011;5095;49.796;9.934;2022-10-14T05:14:10;10.90;;;7.43;;
10110;SDS011;5095;49.796;9.934;2022-10-14T05:16:36;11.30;;;7.53;;
10110;SDS011;5095;49.796;9.934;2022-10-14T05:19:05;11.30;;;8.10;;
10110;SDS011;5095;49.796;9.934;2022-10-14T05:21:31;9.00;;;5.47;;
10110;SDS011;5095;49.796;9.934;2022-10-14T05:23:57;11.43;;;7.20;;
10110;SDS011;5095;49.796;9.934;2022-10-14T05:26:23;15.47;;;8.83;;
10110;SDS011;5095;49.796;9.934;2022-10-14T05:28:50;11.67;;;7.80;;
10110;SDS011;5095;49.796;9.934;2022-10-14T05:31:16;9.93;;;7.17;;
10110;SDS011;5095;49.796;9.934;2022-10-14T05:33:42;12.37;;;7.47;;
10110;SDS011;5095;49.796;9.934;2022-10-14T05:36:08;11.70;;;7.53;;
10110;SDS011;5095;49.796;9.934;2022-10-14T05:38:34;12.13;;;7.87;;
10110;SDS011;5095;49.796;9.934;2022-10-14T05:41:00;12.47;;;8.30;;
10110;SDS011;5095;49.796;9.934;2022-10-14T05:43:27;13.13;;;7.70;;
10110;SDS011;5095;49.796;9.934;2022-10-14T05:45:53;11.03;;;8.33;;
10110;SDS011;5095;49.796;9.934;2022-10-14T05:48:19;10.47;;;7.10;;
10110;SDS011;5095;49.796;9.934;2022-10-14T05:50:45;16.80;;;8.40;;
10110;SDS011;5095;49.796;9.934;2022-10-14T05:53:11;12.07;;;7.50;;
10110;SDS011;5095;49.796;9.934;2022-10-14T05:55:37;9.60;;;6.93;;
10110;SDS011;5095;49.796;9.934;2022-10-14T05:58:03;10.40;;;6.97;;
10110;SDS011;5095;49.796;9.934;2022-10-14T06:00:29;11.00;;;7.57;;
10110;SDS011;5095;49.796;9.934;2022-10-14T06:02:56;11.00;;;7.53;;
10110;SDS011;5095;49.796;9.934;2022-10-14T06:05:22;11.07;;;8.00;;
10110;SDS011;5095;49.796;9.934;2022-10-14T06:07:48;11.17;;;7.87;;
10110;SDS011;5095;49.796;9.934;2022-10-14T06:10:15;12.97;;;8.40;;
10110;SDS011;5095;49.796;9.934;2022-10-14T06:12:41;12.87;;;8.33;;
10110;SDS011;5095;49.796;9.934;2022-10-14T06:15:07;11.83;;;7.67;;
10110;SDS011;5095;49.796;9.934;2022-10-14T06:17:33;9.87;;;7.40;;
10110;SDS011;5095;49.796;9.934;2022-10-14T06:19:59;11.93;;;6.67;;
10110;SDS011;5095;49.796;9.934;2022-10-14T06:22:26;15.03;;;8.20;;
10110;SDS011;5095;49.796;9.934;2022-10-14T06:24:52;11.30;;;8.00;;
10110;SDS011;5095;49.796;9.934;2022-10-14T06:27:18;13.20;;;8.03;;
10110;SDS011;5095;49.796;9.934;2022-10-14T06:29:44;16.27;;;7.97;;
10110;SDS011;5095;49.796;9.934;2022-10-14T06:32:10;12.43;;;7.80;;
10110;SDS011;5095;49.796;9.934;2022-10-14T06:34:36;12.47;;;9.07;;
10110;SDS011;5095;49.796;9.934;2022-10-14T06:37:02;11.90;;;8.53;;
10110;SDS011;5095;49.796;9.934;2022-10-14T06:39:28;13.00;;;8.73;;
10110;SDS011;5095;49.796;9.934;2022-10-14T06:41:54;11.83;;;8.03;;
10110;SDS011;5095;49.796;9.934;2022-10-14T06:44:23;11.03;;;8.17;;
10110;SDS011;5095;49.796;9.934;2022-10-14T06:46:49;18.63;;;10.73;;
10110;SDS011;5095;49.796;9.934;2022-10-14T06:49:15;16.27;;;10.47;;
10110;SDS011;5095;49.796;9.934;2022-10-14T06:51:41;15.40;;;9.70;;
10110;SDS011;5095;49.796;9.934;2022-10-14T06:54:07;15.70;;;10.07;;
10110;SDS011;5095;49.796;9.934;2022-10-14T06:56:33;14.27;;;10.10;;
10110;SDS011;5095;49.796;9.934;2022-10-14T06:58:59;14.97;;;11.73;;
10110;SDS011;5095;49.796;9.934;2022-10-14T07:01:26;20.10;;;12.57;;
10110;SDS011;5095;49.796;9.934;2022-10-14T07:03:52;17.60;;;11.83;;
10110;SDS011;5095;49.796;9.934;2022-10-14T07:06:18;17.93;;;12.47;;
10110;SDS011;5095;49.796;9.934;2022-10-14T07:08:44;13.63;;;10.87;;
10110;SDS011;5095;49.796;9.934;2022-10-14T07:11:10;15.27;;;11.07;;
10110;SDS011;5095;49.796;9.934;2022-10-14T07:13:36;16.83;;;11.63;;
10110;SDS011;5095;49.796;9.934;2022-10-14T07:16:02;18.83;;;10.90;;
10110;SDS011;5095;49.796;9.934;2022-10-14T07:18:29;18.87;;;10.83;;
10110;SDS011;5095;49.796;9.934;2022-10-14T07:20:55;13.97;;;9.67;;
10110;SDS011;5095;49.796;9.934;2022-10-14T07:23:21;16.63;;;11.47;;
10110;SDS011;5095;49.796;9.934;2022-10-14T07:25:47;14.13;;;9.70;;
10110;SDS011;5095;49.796;9.934;2022-10-14T07:28:14;15.63;;;9.87;;
10110;SDS011;5095;49.796;9.934;2022-10-14T07:30:40;12.20;;;9.80;;
10110;SDS011;5095;49.796;9.934;2022-10-14T07:33:06;16.20;;;10.33;;
10110;SDS011;5095;49.796;9.934;2022-10-14T07:35:32;18.87;;;12.60;;
10110;SDS011;5095;49.796;9.934;2022-10-14T07:37:59;17.17;;;10.13;;
10110;SDS011;5095;49.796;9.934;2022-10-14T07:40:25;17.63;;;11.07;;
10110;SDS011;5095;49.796;9.934;2022-10-14T07:42:52;14.53;;;9.87;;
10110;SDS011;5095;49.796;9.934;2022-10-14T07:45:17;16.23;;;9.60;;
10110;SDS011;5095;49.796;9.934;2022-10-14T07:47:48;19.30;;;10.00;;
10110;SDS011;5095;49.796;9.934;2022-10-14T07:50:15;15.83;;;10.70;;
10110;SDS011;5095;49.796;9.934;2022-10-14T07:52:41;12.30;;;9.73;;
10110;SDS011;5095;49.796;9.934;2022-10-14T07:55:07;13.57;;;8.87;;
10110;SDS011;5095;49.796;9.934;2022-10-14T07:57:33;16.37;;;8.77;;
10110;SDS011;5095;49.796;9.934;2022-10-14T07:59:59;9.07;;;6.30;;
10110;SDS011;5095;49.796;9.934;2022-10-14T08:02:25;10.27;;;6.77;;
10110;SDS011;5095;49.796;9.934;2022-10-14T08:04:52;11.27;;;6.00;;
10110;SDS011;5095;49.796;9.934;2022-10-14T08:07:19;13.53;;;7.07;;
10110;SDS011;5095;49.796;9.934;2022-10-14T08:09:45;13.80;;;8.00;;
10110;SDS011;5095;49.796;9.934;2022-10-14T08:12:11;15.87;;;9.60;;
10110;SDS011;5095;49.796;9.934;2022-10-14T08:14:37;13.37;;;7.53;;
10110;SDS011;5095;49.796;9.934;2022-10-14T08:17:03;7.97;;;5.33;;
10110;SDS011;5095;49.796;9.934;2022-10-14T08:19:29;12.17;;;7.97;;
10110;SDS011;5095;49.796;9.934;2022-10-14T08:21:55;22.10;;;9.73;;
10110;SDS011;5095;49.796;9.934;2022-10-14T08:24:22;11.83;;;7.00;;
10110;SDS011;5095;49.796;9.934;2022-10-14T08:26:52;15.77;;;7.83;;
10110;SDS011;5095;49.796;9.934;2022-10-14T08:29:18;9.27;;;5.30;;
10110;SDS011;5095;49.796;9.934;2022-10-14T08:31:46;11.33;;;6.47;;
10110;SDS011;5095;49.796;9.934;2022-10-14T08:34:12;12.40;;;7.67;;
10110;SDS011;5095;49.796;9.934;2022-10-14T08:36:39;10.80;;;7.13;;
10110;SDS011;5095;49.796;9.934;2022-10-14T08:39:05;10.80;;;6.93;;
10110;SDS011;5095;49.796;9.934;2022-10-14T08:44:17;11.80;;;7.63;;
10110;SDS011;5095;49.796;9.934;2022-10-14T08:46:53;11.33;;;6.13;;
10110;SDS011;5095;49.796;9.934;2022-10-14T08:49:28;11.40;;;6.80;;
10110;SDS011;5095;49.796;9.934;2022-10-14T08:51:57;10.73;;;5.63;;
10110;SDS011;5095;49.796;9.934;2022-10-14T08:54:33;12.43;;;7.17;;
10110;SDS011;5095;49.796;9.934;2022-10-14T08:57:01;14.63;;;6.87;;
10110;SDS011;5095;49.796;9.934;2022-10-14T08:59:27;12.27;;;7.03;;
10110;SDS011;5095;49.796;9.934;2022-10-14T09:01:58;13.10;;;6.93;;
10110;SDS011;5095;49.796;9.934;2022-10-14T09:04:25;13.83;;;6.97;;
10110;SDS011;5095;49.796;9.934;2022-10-14T09:06:51;6.93;;;5.50;;
10110;SDS011;5095;49.796;9.934;2022-10-14T09:09:25;9.97;;;5.90;;
10110;SDS011;5095;49.796;9.934;2022-10-14T09:11:59;10.33;;;6.20;;
10110;SDS011;5095;49.796;9.934;2022-10-14T09:14:28;11.10;;;6.10;;
10110;SDS011;5095;49.796;9.934;2022-10-14T09:16:55;7.20;;;4.30;;
10110;SDS011;5095;49.796;9.934;2022-10-14T09:19:31;6.43;;;4.17;;
10110;SDS011;5095;49.796;9.934;2022-10-14T09:21:59;8.90;;;4.57;;
10110;SDS011;5095;49.796;9.934;2022-10-14T09:26:53;13.77;;;5.13;;
10110;SDS011;5095;49.796;9.934;2022-10-14T09:29:27;6.40;;;4.20;;
10110;SDS011;5095;49.796;9.934;2022-10-14T09:31:58;11.50;;;6.30;;
10110;SDS011;5095;49.796;9.934;2022-10-14T09:34:35;7.33;;;4.20;;
10110;SDS011;5095;49.796;9.934;2022-10-14T09:37:21;4.47;;;3.23;;
10110;SDS011;5095;49.796;9.934;2022-10-14T09:39:48;7.60;;;4.10;;
10110;SDS011;5095;49.796;9.934;2022-10-14T09:42:19;8.77;;;5.13;;
10110;SDS011;5095;49.796;9.934;2022-10-14T09:45:03;4.93;;;3.53;;
10110;SDS011;5095;49.796;9.934;2022-10-14T09:47:29;6.00;;;3.77;;
10110;SDS011;5095;49.796;9.934;2022-10-14T09:49:56;5.20;;;3.60;;
10110;SDS011;5095;49.796;9.934;2022-10-14T09:52:24;7.30;;;4.00;;
10110;SDS011;5095;49.796;9.934;2022-10-14T09:54:54;5.67;;;3.70;;
10110;SDS011;5095;49.796;9.934;2022-10-14T09:57:22;6.33;;;3.50;;
10110;SDS011;5095;49.796;9.934;2022-10-14T09:59:49;8.93;;;3.73;;
10110;SDS011;5095;49.796;9.934;2022-10-14T10:02:21;8.90;;;4.80;;
10110;SDS011;5095;49.796;9.934;2022-10-14T10:04:48;8.67;;;4.77;;
10110;SDS011;5095;49.796;9.934;2022-10-14T10:07:30;6.93;;;3.83;;
10110;SDS011;5095;49.796;9.934;2022-10-14T10:09:58;7.27;;;3.60;;
10110;SDS011;5095;49.796;9.934;2022-10-14T10:12:29;8.10;;;4.07;;
10110;SDS011;5095;49.796;9.934;2022-10-14T10:14:56;4.70;;;3.47;;
10110;SDS011;5095;49.796;9.934;2022-10-14T10:17:22;6.87;;;3.37;;
10110;SDS011;5095;49.796;9.934;2022-10-14T10:19:50;8.90;;;4.53;;
10110;SDS011;5095;49.796;9.934;2022-10-14T10:22:30;9.20;;;4.13;;
10110;SDS011;5095;49.796;9.934;2022-10-14T10:27:28;5.50;;;3.33;;
10110;SDS011;5095;49.796;9.934;2022-10-14T10:30:00;5.23;;;3.20;;
10110;SDS011;5095;49.796;9.934;2022-10-14T10:40:22;9.43;;;4.00;;
10110;SDS011;5095;49.796;9.934;2022-10-14T10:45:40;5.30;;;3.23;;
10110;SDS011;5095;49.796;9.934;2022-10-14T10:48:15;4.97;;;3.30;;
10110;SDS011;5095;49.796;9.934;2022-10-14T11:01:33;6.93;;;3.30;;
10110;SDS011;5095;49.796;9.934;2022-10-14T11:06:53;5.97;;;3.30;;
10110;SDS011;5095;49.796;9.934;2022-10-14T11:18:15;6.83;;;3.77;;
10110;SDS011;5095;49.796;9.934;2022-10-14T11:23:27;7.67;;;3.63;;
10110;SDS011;5095;49.796;9.934;2022-10-14T11:41:18;5.77;;;3.20;;
10110;SDS011;5095;49.796;9.934;2022-10-14T11:44:11;5.43;;;3.23;;
10110;SDS011;5095;49.796;9.934;2022-10-14T11:46:41;5.30;;;2.97;;
10110;SDS011;5095;49.796;9.934;2022-10-14T11:49:19;6.53;;;3.30;;
10110;SDS011;5095;49.796;9.934;2022-10-14T11:54:15;6.57;;;2.60;;
10110;SDS011;5095;49.796;9.934;2022-10-14T11:56:45;6.67;;;2.90;;
10110;SDS011;5095;49.796;9.934;2022-10-14T12:01:42;5.00;;;2.60;;
10110;SDS011;5095;49.796;9.934;2022-10-14T12:04:10;3.43;;;2.50;;
10110;SDS011;5095;49.796;9.934;2022-10-14T12:06:42;3.90;;;2.90;;
10110;SDS011;5095;49.796;9.934;2022-10-14T12:09:21;6.17;;;2.60;;
10110;SDS011;5095;49.796;9.934;2022-10-14T12:11:49;5.53;;;2.93;;
10110;SDS011;5095;49.796;9.934;2022-10-14T12:14:33;8.77;;;2.73;;
10110;SDS011;5095;49.796;9.934;2022-10-14T12:17:00;4.90;;;3.40;;
10110;SDS011;5095;49.796;9.934;2022-10-14T12:19:40;4.23;;;2.53;;
10110;SDS011;5095;49.796;9.934;2022-10-14T12:22:14;3.03;;;2.40;;
10110;SDS011;5095;49.796;9.934;2022-10-14T12:24:46;3.63;;;2.70;;
10110;SDS011;5095;49.796;9.934;2022-10-14T12:27:13;6.90;;;2.43;;
10110;SDS011;5095;49.796;9.934;2022-10-14T12:29:40;4.90;;;2.87;;
10110;SDS011;5095;49.796;9.934;2022-10-14T12:36:59;5.73;;;2.23;;
10110;SDS011;5095;49.796;9.934;2022-10-14T12:39:32;4.73;;;2.30;;
10110;SDS011;5095;49.796;9.934;2022-10-14T12:44:28;3.77;;;2.30;;
10110;SDS011;5095;49.796;9.934;2022-10-14T12:46:57;11.83;;;6.43;;
10110;SDS011;5095;49.796;9.934;2022-10-14T12:49:32;6.43;;;2.40;;
10110;SDS011;5095;49.796;9.934;2022-10-14T12:52:00;2.67;;;1.93;;
10110;SDS011;5095;49.796;9.934;2022-10-14T12:54:28;3.77;;;2.17;;
10110;SDS011;5095;49.796;9.934;2022-10-14T12:56:58;4.80;;;2.33;;
10110;SDS011;5095;49.796;9.934;2022-10-14T12:59:37;4.67;;;2.40;;
10110;SDS011;5095;49.796;9.934;2022-10-14T13:02:10;3.00;;;2.00;;
10110;SDS011;5095;49.796;9.934;2022-10-14T13:04:50;5.23;;;2.10;;
10110;SDS011;5095;49.796;9.934;2022-10-14T13:09:44;10.07;;;2.73;;
10110;SDS011;5095;49.796;9.934;2022-10-14T13:12:28;5.90;;;2.90;;
10110;SDS011;5095;49.796;9.934;2022-10-14T13:14:59;6.80;;;2.63;;
10110;SDS011;5095;49.796;9.934;2022-10-14T13:17:30;5.83;;;2.50;;
10110;SDS011;5095;49.796;9.934;2022-10-14T13:22:53;5.00;;;2.63;;
10110;SDS011;5095;49.796;9.934;2022-10-14T13:25:19;5.70;;;2.80;;
10110;SDS011;5095;49.796;9.934;2022-10-14T13:33:03;4.43;;;2.60;;
10110;SDS011;5095;49.796;9.934;2022-10-14T13:35:47;3.53;;;2.10;;
10110;SDS011;5095;49.796;9.934;2022-10-14T13:38:15;4.20;;;2.67;;
10110;SDS011;5095;49.796;9.934;2022-10-14T13:40:43;3.63;;;2.10;;
10110;SDS011;5095;49.796;9.934;2022-10-14T13:43:20;6.50;;;2.70;;
10110;SDS011;5095;49.796;9.934;2022-10-14T13:46:12;4.63;;;2.53;;
10110;SDS011;5095;49.796;9.934;2022-10-14T13:48:42;3.73;;;2.33;;
10110;SDS011;5095;49.796;9.934;2022-10-14T13:58:48;3.47;;;2.13;;
10110;SDS011;5095;49.796;9.934;2022-10-14T14:01:14;4.67;;;2.77;;
10110;SDS011;5095;49.796;9.934;2022-10-14T14:03:42;5.90;;;3.10;;
10110;SDS011;5095;49.796;9.934;2022-10-14T14:06:10;4.53;;;2.67;;
10110;SDS011;5095;49.796;9.934;2022-10-14T14:08:41;4.93;;;2.90;;
10110;SDS011;5095;49.796;9.934;2022-10-14T14:11:15;3.60;;;2.50;;
10110;SDS011;5095;49.796;9.934;2022-10-14T14:13:44;7.47;;;2.70;;
10110;SDS011;5095;49.796;9.934;2022-10-14T14:16:17;4.83;;;2.50;;
10110;SDS011;5095;49.796;9.934;2022-10-14T14:18:47;5.63;;;2.30;;
10110;SDS011;5095;49.796;9.934;2022-10-14T14:21:14;5.53;;;2.70;;
10110;SDS011;5095;49.796;9.934;2022-10-14T14:23:50;7.83;;;2.70;;
10110;SDS011;5095;49.796;9.934;2022-10-14T14:26:16;5.90;;;2.60;;
10110;SDS011;5095;49.796;9.934;2022-10-14T14:28:43;3.83;;;2.27;;
10110;SDS011;5095;49.796;9.934;2022-10-14T14:31:12;4.93;;;2.53;;
10110;SDS011;5095;49.796;9.934;2022-10-14T14:33:39;6.07;;;2.80;;
10110;SDS011;5095;49.796;9.934;2022-10-14T14:36:09;4.33;;;2.70;;
10110;SDS011;5095;49.796;9.934;2022-10-14T14:38:37;6.73;;;2.90;;
10110;SDS011;5095;49.796;9.934;2022-10-14T14:41:16;6.17;;;2.77;;
10110;SDS011;5095;49.796;9.934;2022-10-14T14:43:42;4.97;;;2.60;;
10110;SDS011;5095;49.796;9.934;2022-10-14T14:46:11;4.60;;;2.30;;
10110;SDS011;5095;49.796;9.934;2022-10-14T14:48:40;12.60;;;3.57;;
10110;SDS011;5095;49.796;9.934;2022-10-14T14:51:08;6.73;;;2.73;;
10110;SDS011;5095;49.796;9.934;2022-10-14T14:53:35;4.47;;;2.90;;
10110;SDS011;5095;49.796;9.934;2022-10-14T14:56:03;5.30;;;2.67;;
10110;SDS011;5095;49.796;9.934;2022-10-14T14:58:31;4.70;;;2.70;;
10110;SDS011;5095;49.796;9.934;2022-10-14T15:00:58;4.40;;;2.50;;
10110;SDS011;5095;49.796;9.934;2022-10-14T15:03:25;7.20;;;3.37;;
10110;SDS011;5095;49.796;9.934;2022-10-14T15:05:54;7.70;;;3.37;;
10110;SDS011;5095;49.796;9.934;2022-10-14T15:08:21;3.60;;;2.37;;
10110;SDS011;5095;49.796;9.934;2022-10-14T15:10:48;3.77;;;2.60;;
10110;SDS011;5095;49.796;9.934;2022-10-14T15:13:31;4.57;;;2.70;;
10110;SDS011;5095;49.796;9.934;2022-10-14T15:16:07;7.50;;;3.00;;
10110;SDS011;5095;49.796;9.934;2022-10-14T15:18:33;5.23;;;2.83;;
10110;SDS011;5095;49.796;9.934;2022-10-14T15:31:35;5.50;;;3.40;;
10110;SDS011;5095;49.796;9.934;2022-10-14T15:34:01;6.13;;;3.63;;
10110;SDS011;5095;49.796;9.934;2022-10-14T15:36:28;8.13;;;4.07;;
10110;SDS011;5095;49.796;9.934;2022-10-14T15:38:55;5.27;;;3.07;;
10110;SDS011;5095;49.796;9.934;2022-10-14T15:41:26;7.20;;;3.00;;
10110;SDS011;5095;49.796;9.934;2022-10-14T15:43:52;6.83;;;3.93;;
10110;SDS011;5095;49.796;9.934;2022-10-14T15:46:18;6.43;;;3.63;;
10110;SDS011;5095;49.796;9.934;2022-10-14T15:49:04;6.33;;;3.27;;
10110;SDS011;5095;49.796;9.934;2022-10-14T15:51:37;6.37;;;3.13;;
10110;SDS011;5095;49.796;9.934;2022-10-14T15:54:03;7.07;;;3.43;;
10110;SDS011;5095;49.796;9.934;2022-10-14T15:56:30;5.43;;;3.03;;
10110;SDS011;5095;49.796;9.934;2022-10-14T15:58:56;4.77;;;3.30;;
10110;SDS011;5095;49.796;9.934;2022-10-14T16:01:22;5.43;;;3.17;;
10110;SDS011;5095;49.796;9.934;2022-10-14T16:03:48;6.33;;;3.50;;
10110;SDS011;5095;49.796;9.934;2022-10-14T16:06:19;5.90;;;2.90;;
10110;SDS011;5095;49.796;9.934;2022-10-14T16:08:46;7.13;;;4.00;;
10110;SDS011;5095;49.796;9.934;2022-10-14T16:11:18;6.47;;;3.60;;
10110;SDS011;5095;49.796;9.934;2022-10-14T16:13:44;6.47;;;4.50;;
10110;SDS011;5095;49.796;9.934;2022-10-14T16:16:11;4.07;;;3.10;;
10110;SDS011;5095;49.796;9.934;2022-10-14T16:18:37;6.93;;;3.40;;
10110;SDS011;5095;49.796;9.934;2022-10-14T16:21:03;6.40;;;3.13;;
10110;SDS011;5095;49.796;9.934;2022-10-14T16:23:29;6.90;;;3.30;;
10110;SDS011;5095;49.796;9.934;2022-10-14T16:25:55;6.47;;;3.80;;
10110;SDS011;5095;49.796;9.934;2022-10-14T16:28:22;5.20;;;3.43;;
10110;SDS011;5095;49.796;9.934;2022-10-14T16:30:48;8.07;;;3.77;;
10110;SDS011;5095;49.796;9.934;2022-10-14T16:33:15;6.50;;;3.63;;
10110;SDS011;5095;49.796;9.934;2022-10-14T16:35:41;7.93;;;3.63;;
10110;SDS011;5095;49.796;9.934;2022-10-14T16:38:10;5.83;;;3.37;;
10110;SDS011;5095;49.796;9.934;2022-10-14T16:40:36;7.53;;;3.60;;
10110;SDS011;5095;49.796;9.934;2022-10-14T16:43:03;6.43;;;3.03;;
10110;SDS011;5095;49.796;9.934;2022-10-14T16:45:29;10.90;;;4.80;;
10110;SDS011;5095;49.796;9.934;2022-10-14T16:47:55;5.97;;;4.20;;
10110;SDS011;5095;49.796;9.934;2022-10-14T16:50:21;8.53;;;4.00;;
10110;SDS011;5095;49.796;9.934;2022-10-14T16:52:47;8.67;;;4.83;;
10110;SDS011;5095;49.796;9.934;2022-10-14T16:55:32;6.10;;;3.20;;
10110;SDS011;5095;49.796;9.934;2022-10-14T16:57:58;6.70;;;3.37;;
10110;SDS011;5095;49.796;9.934;2022-10-14T17:00:24;7.17;;;4.10;;
10110;SDS011;5095;49.796;9.934;2022-10-14T17:02:50;7.53;;;3.60;;
10110;SDS011;5095;49.796;9.934;2022-10-14T17:05:18;6.57;;;4.10;;
10110;SDS011;5095;49.796;9.934;2022-10-14T17:07:44;6.17;;;3.87;;
10110;SDS011;5095;49.796;9.934;2022-10-14T17:10:10;8.43;;;4.10;;